createdAt,value
2017-10-02T00:00:01.891Z,65.07
2017-10-02T00:02:28.537Z,63.73
2017-10-02T00:04:55.474Z,71.07
2017-10-02T00:07:22.123Z,55.10
2017-10-02T00:09:48.771Z,70.93
2017-10-02T00:12:15.447Z,64.53
2017-10-02T00:14:42.228Z,75.80
2017-10-02T00:17:08.884Z,70.27
2017-10-02T00:19:35.531Z,62.27
2017-10-02T00:22:02.211Z,70.63
2017-10-02T00:24:28.864Z,72.23
2017-10-02T00:26:55.848Z,73.27
2017-10-02T00:29:22.493Z,75.67
2017-10-02T00:31:49.154Z,76.70
2017-10-02T00:34:15.844Z,112.53
2017-10-02T00:36:42.498Z,95.70
2017-10-02T00:39:09.189Z,114.57
2017-10-02T00:41:35.852Z,98.80
2017-10-02T00:44:02.499Z,75.37
2017-10-02T00:46:29.189Z,85.70
2017-10-02T00:48:55.868Z,73.37
2017-10-02T00:51:22.557Z,74.67
2017-10-02T00:53:49.215Z,83.73
2017-10-02T00:56:16.053Z,75.33
2017-10-02T00:58:42.729Z,78.93
2017-10-02T01:01:09.377Z,63.27
2017-10-02T01:03:36.049Z,74.83
2017-10-02T01:06:02.720Z,62.90
2017-10-02T01:08:29.366Z,54.50
2017-10-02T01:10:56.034Z,58.80
2017-10-02T01:13:22.684Z,58.30
2017-10-02T01:15:49.485Z,53.07
2017-10-02T01:18:16.129Z,61.90
2017-10-02T01:20:42.781Z,54.93
2017-10-02T01:23:09.460Z,51.17
2017-10-02T01:25:36.108Z,52.87
2017-10-02T01:28:02.791Z,50.37
2017-10-02T01:30:29.441Z,50.70
2017-10-02T01:32:56.137Z,58.83
2017-10-02T01:35:22.790Z,40.97
2017-10-02T01:37:49.441Z,60.53
2017-10-02T01:40:16.297Z,46.90
2017-10-02T01:42:42.942Z,44.63
2017-10-02T01:45:09.591Z,48.80
2017-10-02T01:47:36.264Z,45.90
2017-10-02T01:50:02.931Z,54.13
2017-10-02T01:52:29.668Z,41.40
2017-10-02T01:54:56.331Z,52.77
2017-10-02T01:57:23.299Z,59.13
2017-10-02T01:59:49.952Z,53.00
2017-10-02T02:02:16.600Z,47.13
2017-10-02T02:04:43.530Z,54.40
2017-10-02T02:07:10.179Z,53.50
2017-10-02T02:09:36.839Z,49.60
2017-10-02T02:12:03.756Z,63.40
2017-10-02T02:14:30.396Z,50.20
2017-10-02T02:16:57.044Z,65.90
2017-10-02T02:19:23.713Z,67.13
2017-10-02T02:21:50.360Z,52.27
2017-10-02T02:24:17.031Z,65.93
2017-10-02T02:26:43.680Z,48.67
2017-10-02T02:29:10.375Z,62.13
2017-10-02T02:31:37.031Z,51.17
2017-10-02T02:34:03.712Z,52.13
2017-10-02T02:36:30.355Z,52.80
2017-10-02T02:38:57.203Z,44.47
2017-10-02T02:41:23.857Z,50.63
2017-10-02T02:43:50.509Z,59.73
2017-10-02T02:46:17.184Z,54.50
2017-10-02T02:48:43.861Z,65.33
2017-10-02T02:51:10.823Z,64.73
2017-10-02T02:53:37.481Z,65.90
2017-10-02T02:56:04.128Z,66.20
2017-10-02T02:58:30.808Z,68.30
2017-10-02T03:00:57.456Z,62.13
2017-10-02T03:03:24.133Z,57.17
2017-10-02T03:05:50.809Z,66.53
2017-10-02T03:08:17.721Z,60.60
2017-10-02T03:10:44.672Z,63.90
2017-10-02T03:13:11.329Z,54.20
2017-10-02T03:15:37.975Z,75.67
2017-10-02T03:18:04.901Z,62.17
2017-10-02T03:20:31.550Z,72.90
2017-10-02T03:22:58.199Z,93.03
2017-10-02T03:25:25.333Z,117.40
2017-10-02T03:27:51.983Z,116.53
2017-10-02T03:30:18.649Z,110.33
2017-10-02T03:32:45.334Z,107.67
2017-10-02T03:35:11.993Z,122.23
2017-10-02T03:37:38.676Z,132.23
2017-10-02T03:40:05.369Z,137.50
2017-10-02T03:42:32.020Z,111.37
2017-10-02T03:44:58.673Z,87.97
2017-10-02T03:47:25.339Z,77.67
2017-10-02T03:49:51.983Z,73.57
2017-10-02T03:52:18.636Z,75.23
2017-10-02T03:54:45.430Z,71.83
2017-10-02T03:57:12.080Z,84.83
2017-10-02T03:59:38.732Z,86.07
2017-10-02T04:02:05.410Z,87.50
2017-10-02T04:04:32.055Z,81.43
2017-10-02T04:06:59.042Z,70.00
2017-10-02T04:09:25.685Z,77.10
2017-10-02T04:11:52.335Z,81.27
2017-10-02T04:14:19.007Z,82.50
2017-10-02T04:16:45.680Z,81.80
2017-10-02T04:19:12.330Z,70.50
2017-10-02T04:21:39.183Z,71.87
2017-10-02T04:24:05.833Z,67.90
2017-10-02T04:26:32.477Z,78.90
2017-10-02T04:28:59.147Z,65.03
2017-10-02T04:31:25.936Z,69.10
2017-10-02T04:33:52.704Z,63.57
2017-10-02T04:36:19.549Z,64.57
2017-10-02T04:38:46.221Z,75.50
2017-10-02T04:41:12.867Z,68.40
2017-10-02T04:43:39.544Z,61.67
2017-10-02T04:46:06.199Z,60.83
2017-10-02T04:48:33.063Z,75.40
2017-10-02T04:50:59.707Z,72.63
2017-10-02T04:53:26.355Z,89.73
2017-10-02T04:55:53.031Z,76.17
2017-10-02T04:58:19.675Z,67.60
2017-10-02T05:00:46.344Z,59.37
2017-10-02T05:03:12.992Z,79.87
2017-10-02T05:05:39.949Z,57.60
2017-10-02T05:08:06.595Z,58.90
2017-10-02T05:10:33.245Z,63.83
2017-10-02T05:12:59.925Z,64.77
2017-10-02T05:15:26.577Z,58.23
2017-10-02T05:17:53.576Z,59.90
2017-10-02T05:20:20.224Z,64.60
2017-10-02T05:22:46.894Z,74.43
2017-10-02T05:25:13.787Z,61.87
2017-10-02T05:27:40.539Z,77.90
2017-10-02T05:30:07.179Z,63.27
2017-10-02T05:32:33.855Z,72.90
2017-10-02T05:35:00.508Z,69.93
2017-10-02T05:37:27.179Z,96.10
2017-10-02T05:39:53.819Z,90.33
2017-10-02T05:42:20.519Z,80.33
2017-10-02T05:44:47.168Z,77.63
2017-10-02T05:47:13.827Z,100.77
2017-10-02T05:49:40.506Z,72.20
2017-10-02T05:52:07.180Z,71.20
2017-10-02T05:54:34.089Z,81.67
2017-10-02T05:57:00.734Z,65.17
2017-10-02T05:59:27.380Z,70.63
2017-10-02T06:01:54.045Z,81.50
2017-10-02T06:04:20.695Z,80.37
2017-10-02T06:06:47.711Z,71.70
2017-10-02T06:09:14.353Z,74.53
2017-10-02T06:11:41.003Z,72.13
2017-10-02T06:14:07.683Z,56.93
2017-10-02T06:16:34.788Z,58.30
2017-10-02T06:19:01.528Z,76.67
2017-10-02T06:21:28.180Z,59.97
2017-10-02T06:23:54.872Z,64.67
2017-10-02T06:26:21.511Z,85.73
2017-10-02T06:28:48.193Z,60.50
2017-10-02T06:31:14.843Z,71.40
2017-10-02T06:33:41.773Z,61.50
2017-10-02T06:36:08.422Z,65.27
2017-10-02T06:38:35.065Z,56.13
2017-10-02T06:41:02.007Z,62.67
2017-10-02T06:43:28.652Z,67.13
2017-10-02T06:45:55.541Z,64.80
2017-10-02T06:48:22.252Z,89.23
2017-10-02T06:50:48.966Z,74.37
2017-10-02T06:53:15.616Z,73.63
2017-10-02T06:55:42.265Z,80.07
2017-10-02T06:58:08.956Z,104.60
2017-10-02T07:00:35.843Z,59.63
2017-10-02T07:03:02.490Z,52.80
2017-10-02T07:05:29.145Z,52.23
2017-10-02T07:07:55.829Z,51.83
2017-10-02T07:10:22.495Z,48.37
2017-10-02T07:12:49.179Z,46.43
2017-10-02T07:15:15.824Z,43.70
2017-10-02T07:17:42.516Z,38.57
2017-10-02T07:20:09.160Z,45.10
2017-10-02T07:22:35.840Z,43.77
2017-10-02T07:25:02.551Z,40.17
2017-10-02T07:27:29.203Z,40.23
2017-10-02T07:29:55.885Z,44.40
2017-10-02T07:32:22.590Z,34.30
2017-10-02T07:34:49.244Z,41.23
2017-10-02T07:37:15.898Z,38.60
2017-10-02T07:39:42.576Z,42.60
2017-10-02T07:42:09.224Z,34.77
2017-10-02T07:44:35.901Z,34.67
2017-10-02T07:47:02.580Z,42.30
2017-10-02T07:49:29.235Z,45.67
2017-10-02T07:51:55.876Z,43.70
2017-10-02T07:54:22.559Z,35.20
2017-10-02T07:56:49.233Z,35.03
2017-10-02T07:59:15.879Z,33.53
2017-10-02T08:01:42.556Z,33.43
2017-10-02T08:04:09.200Z,51.07
2017-10-02T08:06:35.884Z,48.97
2017-10-02T08:09:02.533Z,52.07
2017-10-02T08:11:29.211Z,38.27
2017-10-02T08:13:55.863Z,38.03
2017-10-02T08:16:22.535Z,40.87
2017-10-02T08:18:49.224Z,36.27
2017-10-02T08:21:15.867Z,37.90
2017-10-02T08:23:42.547Z,40.93
2017-10-02T08:26:09.200Z,36.80
2017-10-02T08:28:35.883Z,37.00
2017-10-02T08:31:02.532Z,34.50
2017-10-02T08:33:29.177Z,37.87
2017-10-02T08:35:55.862Z,31.87
2017-10-02T08:38:22.517Z,25.57
2017-10-02T08:40:49.224Z,33.80
2017-10-02T08:43:15.912Z,27.30
2017-10-02T08:45:42.839Z,32.03
2017-10-02T08:48:09.489Z,32.30
2017-10-02T08:50:36.139Z,35.93
2017-10-02T08:53:02.815Z,24.60
2017-10-02T08:55:29.499Z,22.53
2017-10-02T08:57:56.204Z,24.53
2017-10-02T09:00:23.499Z,25.83
2017-10-02T09:02:50.344Z,26.30
2017-10-02T09:05:17.188Z,28.97
2017-10-02T09:07:43.873Z,34.20
2017-10-02T09:10:10.523Z,34.63
2017-10-02T09:12:37.180Z,23.00
2017-10-02T09:15:03.853Z,29.43
2017-10-02T09:17:30.500Z,27.47
2017-10-02T09:19:57.167Z,28.23
2017-10-02T09:22:23.818Z,25.50
2017-10-02T09:24:50.504Z,30.87
2017-10-02T09:27:17.160Z,29.23
2017-10-02T09:29:43.805Z,27.80
2017-10-02T09:32:10.493Z,27.20
2017-10-02T09:34:37.144Z,27.83
2017-10-02T09:37:03.848Z,25.70
2017-10-02T09:39:30.500Z,22.50
2017-10-02T09:41:57.415Z,30.33
2017-10-02T09:44:24.086Z,28.17
2017-10-02T09:46:50.734Z,24.87
2017-10-02T09:49:17.404Z,24.57
2017-10-02T09:51:44.061Z,22.53
2017-10-02T09:54:10.727Z,32.63
2017-10-02T09:56:37.663Z,23.77
2017-10-02T09:59:04.308Z,23.80
2017-10-02T10:01:30.960Z,30.53
2017-10-02T10:03:57.625Z,22.90
2017-10-02T10:06:24.276Z,24.17
2017-10-02T10:08:50.956Z,21.50
2017-10-02T10:11:17.606Z,31.03
2017-10-02T10:13:44.283Z,24.83
2017-10-02T10:16:10.945Z,23.83
2017-10-02T10:18:37.617Z,22.30
2017-10-02T10:21:04.263Z,25.57
2017-10-02T10:23:30.921Z,26.60
2017-10-02T10:25:57.964Z,21.43
2017-10-02T10:28:24.600Z,25.97
2017-10-02T10:30:51.246Z,19.63
2017-10-02T10:33:17.919Z,17.07
2017-10-02T10:35:44.578Z,26.20
2017-10-02T10:38:11.280Z,20.87
2017-10-02T10:40:37.939Z,20.20
2017-10-02T10:43:04.583Z,20.83
2017-10-02T10:45:31.260Z,20.77
2017-10-02T10:47:57.939Z,22.03
2017-10-02T10:50:24.588Z,36.00
2017-10-02T10:52:51.269Z,18.63
2017-10-02T10:55:17.915Z,23.53
2017-10-02T10:57:44.579Z,38.20
2017-10-02T11:00:11.252Z,43.33
2017-10-02T11:02:38.091Z,20.50
2017-10-02T11:05:04.762Z,26.97
2017-10-02T11:07:31.572Z,20.30
2017-10-02T11:09:58.232Z,22.03
2017-10-02T11:12:24.904Z,21.07
2017-10-02T11:14:51.545Z,28.00
2017-10-02T11:17:18.223Z,17.27
2017-10-02T11:19:44.868Z,19.73
2017-10-02T11:22:11.539Z,20.20
2017-10-02T11:24:38.459Z,18.53
2017-10-02T11:27:05.117Z,18.40
2017-10-02T11:29:31.761Z,25.27
2017-10-02T11:31:58.423Z,19.80
2017-10-02T11:34:25.076Z,20.83
2017-10-02T11:36:51.751Z,17.60
2017-10-02T11:39:18.424Z,17.63
2017-10-02T11:41:45.078Z,14.23
2017-10-02T11:44:11.755Z,17.47
2017-10-02T11:46:38.401Z,18.13
2017-10-02T11:49:05.063Z,16.23
2017-10-02T11:51:31.728Z,16.00
2017-10-02T11:53:58.368Z,22.17
2017-10-02T11:56:25.061Z,24.10
2017-10-02T11:58:51.705Z,15.33
2017-10-02T12:01:18.352Z,22.80
2017-10-02T12:03:45.030Z,14.50
2017-10-02T12:06:11.680Z,15.40
2017-10-02T12:08:38.354Z,16.77
2017-10-02T12:11:05.031Z,14.40
2017-10-02T12:13:31.681Z,15.63
2017-10-02T12:15:58.352Z,13.13
2017-10-02T12:18:25.201Z,18.30
2017-10-02T12:20:51.858Z,13.40
2017-10-02T12:23:18.505Z,15.70
2017-10-02T12:25:45.185Z,13.67
2017-10-02T12:28:11.856Z,19.57
2017-10-02T12:30:38.540Z,17.03
2017-10-02T12:33:05.205Z,14.07
2017-10-02T12:35:31.851Z,14.77
2017-10-02T12:37:58.532Z,14.93
2017-10-02T12:40:25.205Z,17.43
2017-10-02T12:42:51.883Z,12.63
2017-10-02T12:45:18.549Z,14.07
2017-10-02T12:47:45.226Z,20.77
2017-10-02T12:50:11.878Z,14.87
2017-10-02T12:52:38.743Z,16.83
2017-10-02T12:55:05.392Z,12.83
2017-10-02T12:57:32.049Z,14.50
2017-10-02T12:59:58.735Z,18.07
2017-10-02T13:02:25.399Z,14.17
2017-10-02T13:04:52.044Z,12.47
2017-10-02T13:07:18.713Z,12.53
2017-10-02T13:09:45.366Z,12.73
2017-10-02T13:12:12.038Z,15.57
2017-10-02T13:14:38.708Z,13.23
2017-10-02T13:17:05.353Z,13.67
2017-10-02T13:19:32.021Z,11.70
2017-10-02T13:21:58.672Z,12.20
2017-10-02T13:24:25.348Z,11.33
2017-10-02T13:26:52.025Z,11.37
2017-10-02T13:29:18.669Z,11.97
2017-10-02T13:31:45.323Z,11.80
2017-10-02T13:34:11.995Z,12.33
2017-10-02T13:36:38.647Z,12.73
2017-10-02T13:39:05.326Z,17.00
2017-10-02T13:41:31.993Z,12.43
2017-10-02T13:43:58.667Z,12.50
2017-10-02T13:46:25.312Z,12.20
2017-10-02T13:48:52.009Z,12.77
2017-10-02T13:51:18.655Z,13.23
2017-10-02T13:53:45.348Z,18.83
2017-10-02T13:56:11.992Z,11.80
2017-10-02T13:58:38.641Z,12.67
2017-10-02T14:01:05.317Z,14.17
2017-10-02T14:03:31.980Z,12.87
2017-10-02T14:05:58.761Z,10.93
2017-10-02T14:08:25.416Z,12.97
2017-10-02T14:10:52.073Z,12.50
2017-10-02T14:13:18.857Z,21.30
2017-10-02T14:15:45.500Z,19.57
2017-10-02T14:18:12.164Z,13.27
2017-10-02T14:20:38.827Z,11.83
2017-10-02T14:23:05.477Z,11.50
2017-10-02T14:25:32.138Z,13.20
2017-10-02T14:27:58.784Z,11.40
2017-10-02T14:30:25.518Z,13.30
2017-10-02T14:32:52.189Z,12.53
2017-10-02T14:35:18.863Z,14.97
2017-10-02T14:44:28.996Z,19.23
2017-10-02T14:46:55.647Z,17.33
2017-10-02T14:49:22.317Z,11.03
2017-10-02T14:51:48.976Z,13.90
2017-10-02T14:54:15.624Z,14.87
2017-10-02T14:56:42.295Z,11.87
2017-10-02T14:59:09.365Z,11.03
2017-10-02T15:01:36.008Z,14.73
2017-10-02T15:04:02.675Z,11.60
2017-10-02T15:06:29.364Z,11.33
2017-10-02T15:08:56.022Z,10.57
2017-10-02T15:11:22.672Z,14.77
2017-10-02T15:13:49.414Z,12.20
2017-10-02T15:16:16.084Z,13.00
2017-10-02T15:18:42.736Z,11.10
2017-10-02T15:21:09.742Z,16.43
2017-10-02T15:23:36.395Z,17.00
2017-10-02T15:26:03.045Z,17.00
2017-10-02T15:28:29.720Z,14.03
2017-10-02T15:30:56.524Z,15.13
2017-10-02T15:33:23.179Z,12.43
2017-10-02T15:35:49.842Z,11.93
2017-10-02T15:38:16.509Z,10.30
2017-10-02T15:40:43.159Z,14.13
2017-10-02T15:43:09.824Z,12.40
2017-10-02T15:45:36.567Z,13.63
2017-10-02T15:48:03.247Z,21.40
2017-10-02T15:50:30.039Z,19.40
2017-10-02T15:52:56.690Z,12.80
2017-10-02T15:55:23.547Z,17.93
2017-10-02T15:57:50.231Z,16.10
2017-10-02T16:00:16.898Z,19.60
2017-10-02T16:02:43.566Z,24.93
2017-10-02T16:05:10.232Z,22.33
2017-10-02T16:07:36.888Z,17.43
2017-10-02T16:10:03.565Z,19.50
2017-10-02T16:12:30.328Z,47.90
2017-10-02T16:14:56.975Z,26.63
2017-10-02T16:17:23.803Z,23.47
2017-10-02T16:19:50.454Z,15.63
2017-10-02T16:22:17.105Z,20.13
2017-10-02T16:24:43.784Z,23.47
2017-10-02T16:27:10.438Z,15.10
2017-10-02T16:29:37.107Z,16.70
2017-10-02T16:32:03.766Z,23.80
2017-10-02T16:34:30.435Z,25.27
2017-10-02T16:36:57.105Z,24.10
2017-10-02T16:39:23.765Z,20.67
2017-10-02T16:41:50.436Z,23.15
2017-10-02T16:44:17.169Z,19.70
2017-10-02T16:46:43.858Z,16.57
2017-10-02T16:49:10.500Z,47.37
2017-10-02T16:51:37.157Z,17.97
2017-10-02T16:54:04.252Z,19.83
2017-10-02T16:56:30.941Z,24.60
2017-10-02T16:58:57.617Z,16.17
2017-10-02T17:01:24.518Z,23.33
2017-10-02T17:03:51.433Z,24.27
2017-10-02T17:06:18.600Z,24.30
2017-10-02T17:08:45.258Z,19.30
2017-10-02T17:11:12.332Z,22.70
2017-10-02T17:13:39.041Z,18.23
2017-10-02T17:16:05.711Z,18.60
2017-10-02T17:18:33.064Z,19.13
2017-10-02T17:20:59.771Z,27.13
2017-10-02T17:23:26.429Z,20.30
2017-10-02T17:25:53.750Z,18.93
2017-10-02T17:28:20.458Z,26.20
2017-10-02T17:30:47.118Z,23.70
2017-10-02T17:33:14.445Z,26.93
2017-10-02T17:35:41.144Z,27.80
2017-10-02T17:38:07.822Z,30.07
2017-10-02T17:40:34.517Z,53.97
2017-10-02T17:43:01.182Z,26.07
2017-10-02T17:45:28.140Z,24.77
2017-10-02T17:47:54.835Z,42.67
2017-10-02T17:50:21.493Z,22.20
2017-10-02T17:52:48.192Z,28.47
2017-10-02T17:55:14.905Z,21.10
2017-10-02T17:57:41.612Z,29.57
2017-10-02T18:00:08.268Z,22.57
2017-10-02T18:02:34.945Z,27.10
2017-10-02T18:05:01.604Z,22.73
2017-10-02T18:07:28.281Z,26.10
2017-10-02T18:09:55.243Z,24.37
2017-10-02T18:12:22.214Z,51.03
2017-10-02T18:14:49.060Z,29.47
2017-10-02T18:17:15.733Z,25.90
2017-10-02T18:19:42.420Z,24.70
2017-10-02T18:22:09.352Z,27.20
2017-10-02T18:24:36.014Z,37.20
2017-10-02T18:27:02.677Z,25.17
2017-10-02T18:29:29.366Z,31.03
2017-10-02T18:31:56.020Z,30.50
2017-10-02T18:34:22.704Z,41.93
2017-10-02T18:36:49.360Z,40.70
2017-10-02T18:39:16.035Z,38.43
2017-10-02T18:41:42.722Z,43.63
2017-10-02T18:44:09.401Z,28.63
2017-10-02T18:46:36.113Z,26.03
2017-10-02T18:49:02.776Z,34.37
2017-10-02T18:51:29.434Z,38.57
2017-10-02T18:53:56.442Z,27.67
2017-10-02T18:56:23.111Z,24.20
2017-10-02T18:58:49.765Z,31.70
2017-10-02T19:01:16.760Z,28.27
2017-10-02T19:03:43.425Z,26.83
2017-10-02T19:06:10.098Z,21.60
2017-10-02T19:08:36.772Z,24.37
2017-10-02T19:11:03.741Z,28.80
2017-10-02T19:13:30.386Z,23.37
2017-10-02T19:15:57.035Z,28.47
2017-10-02T19:18:23.852Z,22.13
2017-10-02T19:20:50.532Z,27.67
2017-10-02T19:23:17.312Z,42.33
2017-10-02T19:25:44.004Z,45.93
2017-10-02T19:28:10.661Z,28.47
2017-10-02T19:30:37.508Z,29.50
2017-10-02T19:33:04.186Z,24.93
2017-10-02T19:35:30.847Z,27.13
2017-10-02T19:37:57.596Z,35.67
2017-10-02T19:40:24.263Z,35.20
2017-10-02T19:42:51.024Z,29.60
2017-10-02T19:45:17.695Z,35.10
2017-10-02T19:47:44.388Z,37.13
2017-10-02T19:50:11.063Z,28.93
2017-10-02T19:52:37.731Z,30.77
2017-10-02T19:55:04.423Z,35.93
2017-10-02T19:57:31.082Z,38.17
2017-10-02T19:59:58.097Z,28.33
2017-10-02T20:02:24.780Z,29.87
2017-10-02T20:04:51.441Z,33.57
2017-10-02T20:07:18.144Z,32.53
2017-10-02T20:09:44.796Z,30.80
2017-10-02T20:12:11.523Z,42.63
2017-10-02T20:14:38.173Z,33.07
2017-10-02T20:17:05.089Z,30.37
2017-10-02T20:19:31.933Z,30.97
2017-10-02T20:21:58.587Z,28.50
2017-10-02T20:24:25.253Z,34.60
2017-10-02T20:26:51.935Z,33.70
2017-10-02T20:29:18.637Z,32.43
2017-10-02T20:31:45.320Z,28.33
2017-10-02T20:34:11.979Z,34.00
2017-10-02T20:36:38.995Z,26.73
2017-10-02T20:39:06.603Z,32.10
2017-10-02T20:41:33.652Z,29.00
2017-10-02T20:44:00.397Z,34.03
2017-10-02T20:46:27.825Z,24.30
2017-10-02T20:48:55.026Z,36.37
2017-10-02T20:51:21.960Z,26.47
2017-10-02T20:53:48.831Z,32.57
2017-10-02T20:56:15.576Z,43.67
2017-10-02T20:58:42.644Z,23.20
2017-10-02T21:01:09.537Z,30.77
2017-10-02T21:03:36.199Z,28.43
2017-10-02T21:06:02.903Z,30.03
2017-10-02T21:08:29.562Z,33.37
2017-10-02T21:10:56.213Z,41.03
2017-10-02T21:13:22.883Z,25.00
2017-10-02T21:15:49.777Z,33.53
2017-10-02T21:18:16.438Z,25.23
2017-10-02T21:20:43.092Z,28.53
2017-10-02T21:23:09.759Z,24.77
2017-10-02T21:25:36.434Z,31.60
2017-10-02T21:28:03.112Z,33.10
2017-10-02T21:30:29.947Z,32.73
2017-10-02T21:32:56.600Z,40.20
2017-10-02T21:35:23.256Z,26.90
2017-10-02T21:37:49.932Z,31.63
2017-10-02T21:40:17.065Z,36.60
2017-10-02T21:42:43.737Z,27.07
2017-10-02T21:45:10.404Z,37.33
2017-10-02T21:47:37.073Z,33.53
2017-10-02T21:50:03.731Z,39.40
2017-10-02T21:52:30.412Z,40.20
2017-10-02T21:54:57.051Z,35.03
2017-10-02T21:57:23.719Z,33.33
2017-10-02T21:59:50.399Z,30.67
2017-10-02T22:02:17.055Z,29.37
2017-10-02T22:04:43.969Z,40.00
2017-10-02T22:07:10.625Z,48.23
2017-10-02T22:09:37.291Z,29.70
2017-10-02T22:12:03.955Z,32.60
2017-10-02T22:14:30.600Z,33.33
2017-10-02T22:16:57.283Z,36.03
2017-10-02T22:19:23.940Z,32.97
2017-10-02T22:21:50.633Z,40.70
2017-10-02T22:24:17.281Z,42.10
2017-10-02T22:26:43.931Z,36.77
2017-10-02T22:29:11.225Z,32.97
2017-10-02T22:31:37.908Z,40.63
2017-10-02T22:34:04.850Z,37.27
2017-10-02T22:36:33.526Z,39.17
2017-10-02T22:39:02.426Z,43.43
2017-10-02T22:41:29.200Z,41.97
2017-10-02T22:43:55.874Z,34.07
2017-10-02T22:46:22.548Z,34.50
2017-10-02T22:48:49.214Z,43.33
2017-10-02T22:51:16.149Z,42.70
2017-10-02T22:53:42.797Z,44.63
2017-10-02T22:56:09.456Z,36.70
2017-10-02T22:58:36.132Z,41.13
2017-10-02T23:01:02.783Z,41.47
2017-10-02T23:03:29.456Z,40.27
2017-10-02T23:05:56.108Z,38.20
2017-10-02T23:08:23.046Z,38.10
2017-10-02T23:10:49.693Z,43.20
2017-10-02T23:13:16.333Z,37.47
2017-10-02T23:15:43.015Z,39.10
2017-10-02T23:18:09.813Z,43.83
2017-10-02T23:20:36.485Z,35.97
2017-10-02T23:23:03.152Z,48.70
2017-10-02T23:25:29.834Z,50.43
2017-10-02T23:27:56.516Z,41.80
2017-10-02T23:30:23.164Z,45.87
2017-10-02T23:32:49.831Z,41.07
2017-10-02T23:35:16.488Z,54.00
2017-10-02T23:37:43.268Z,55.13
2017-10-02T23:40:09.920Z,53.27
2017-10-02T23:42:36.563Z,41.43
2017-10-02T23:45:03.240Z,50.27
2017-10-02T23:47:29.888Z,40.17
2017-10-02T23:49:56.549Z,46.73
2017-10-02T23:52:23.223Z,61.13
2017-10-02T23:54:49.905Z,42.37
2017-10-02T23:57:16.560Z,58.33
2017-10-02T23:59:43.240Z,47.57
